Uncertain, Texas
Current Conditions -  °F | °C
As of 4:35 AM on Thursday 18 Dec 2014 (Local Time) from KASL Reporting Station
Overcast Overcast  
Wind Chill: 43°   Ceiling: 500
Heat Index: 46°   Visibility: 7mi
Dew Point: 44°   Wind: 5mph
Humidity: 93%   Direction: 60°ENE
Pressure: 30.15"   Gusts: NA
Location:  32.6187°N, 94.1782°W
Report Text: KASL 181035Z AUTO 06004KT 7SM OVC005 08/07 A3015 RMK AO1 T00760065
Loading
Personal Weather Stations






























Interactive Weather Map New forecast layout! Learn more

10-Day Weather Forecast

Advertisements
Track Severe Weather on mobile